sensor_id;sensor_type;location;lat;lon;timestamp;P1;durP1;ratioP1;P2;durP2;ratioP2
47401;SDS011;33155;48.370;-3.750;2022-09-29T06:02:20;0.00;;;0.00;;
47401;SDS011;33155;48.370;-3.750;2022-09-29T06:04:45;0.10;;;0.00;;
47401;SDS011;33155;48.370;-3.750;2022-09-29T06:07:11;0.38;;;0.10;;
47401;SDS011;33155;48.370;-3.750;2022-09-29T06:09:36;0.20;;;0.10;;
47401;SDS011;33155;48.370;-3.750;2022-09-29T06:12:02;0.03;;;0.00;;
47401;SDS011;33155;48.370;-3.750;2022-09-29T06:14:28;0.10;;;0.10;;
47401;SDS011;33155;48.370;-3.750;2022-09-29T06:16:53;0.20;;;0.13;;
47401;SDS011;33155;48.370;-3.750;2022-09-29T06:19:19;0.00;;;0.00;;
47401;SDS011;33155;48.370;-3.750;2022-09-29T06:21:44;0.00;;;0.00;;
47401;SDS011;33155;48.370;-3.750;2022-09-29T06:24:10;0.00;;;0.00;;
47401;SDS011;33155;48.370;-3.750;2022-09-29T06:26:35;0.00;;;0.00;;
47401;SDS011;33155;48.370;-3.750;2022-09-29T06:29:01;0.00;;;0.00;;
47401;SDS011;33155;48.370;-3.750;2022-09-29T06:31:28;0.22;;;0.00;;
47401;SDS011;33155;48.370;-3.750;2022-09-29T06:33:57;0.10;;;0.10;;
47401;SDS011;33155;48.370;-3.750;2022-09-29T06:39:14;0.00;;;0.00;;
47401;SDS011;33155;48.370;-3.750;2022-09-29T06:41:40;0.28;;;0.10;;
47401;SDS011;33155;48.370;-3.750;2022-09-29T06:44:08;0.08;;;0.08;;
47401;SDS011;33155;48.370;-3.750;2022-09-29T06:46:34;0.20;;;0.00;;
47401;SDS011;33155;48.370;-3.750;2022-09-29T06:48:59;0.00;;;0.00;;
47401;SDS011;33155;48.370;-3.750;2022-09-29T06:51:26;0.43;;;0.10;;
47401;SDS011;33155;48.370;-3.750;2022-09-29T06:53:51;0.05;;;0.00;;
47401;SDS011;33155;48.370;-3.750;2022-09-29T06:56:17;0.25;;;0.10;;
47401;SDS011;33155;48.370;-3.750;2022-09-29T06:58:43;0.00;;;0.00;;
47401;SDS011;33155;48.370;-3.750;2022-09-29T07:01:10;0.00;;;0.00;;
47401;SDS011;33155;48.370;-3.750;2022-09-29T07:03:36;0.20;;;0.10;;
47401;SDS011;33155;48.370;-3.750;2022-09-29T07:06:02;0.10;;;0.08;;
47401;SDS011;33155;48.370;-3.750;2022-09-29T07:08:31;0.10;;;0.10;;
47401;SDS011;33155;48.370;-3.750;2022-09-29T07:10:59;1.55;;;0.20;;
47401;SDS011;33155;48.370;-3.750;2022-09-29T07:13:24;0.10;;;0.10;;
47401;SDS011;33155;48.370;-3.750;2022-09-29T07:15:51;0.65;;;0.10;;
47401;SDS011;33155;48.370;-3.750;2022-09-29T07:18:16;0.00;;;0.00;;
47401;SDS011;33155;48.370;-3.750;2022-09-29T07:20:42;0.25;;;0.10;;
47401;SDS011;33155;48.370;-3.750;2022-09-29T07:23:08;0.28;;;0.10;;
47401;SDS011;33155;48.370;-3.750;2022-09-29T07:25:34;0.00;;;0.00;;
47401;SDS011;33155;48.370;-3.750;2022-09-29T07:27:59;0.10;;;0.10;;
47401;SDS011;33155;48.370;-3.750;2022-09-29T07:30:25;2.53;;;0.10;;
47401;SDS011;33155;48.370;-3.750;2022-09-29T07:32:55;0.30;;;0.10;;
47401;SDS011;33155;48.370;-3.750;2022-09-29T07:35:21;0.10;;;0.10;;
47401;SDS011;33155;48.370;-3.750;2022-09-29T07:37:50;0.35;;;0.20;;
47401;SDS011;33155;48.370;-3.750;2022-09-29T07:40:16;0.03;;;0.03;;
47401;SDS011;33155;48.370;-3.750;2022-09-29T07:42:42;0.15;;;0.10;;
47401;SDS011;33155;48.370;-3.750;2022-09-29T07:45:08;2.30;;;0.10;;
47401;SDS011;33155;48.370;-3.750;2022-09-29T07:47:33;0.00;;;0.00;;
47401;SDS011;33155;48.370;-3.750;2022-09-29T07:49:58;0.55;;;0.10;;
47401;SDS011;33155;48.370;-3.750;2022-09-29T07:52:24;0.52;;;0.00;;
47401;SDS011;33155;48.370;-3.750;2022-09-29T07:54:49;0.38;;;0.30;;
47401;SDS011;33155;48.370;-3.750;2022-09-29T07:57:15;0.10;;;0.10;;
47401;SDS011;33155;48.370;-3.750;2022-09-29T07:59:40;0.10;;;0.10;;
47401;SDS011;33155;48.370;-3.750;2022-09-29T08:02:06;0.00;;;0.00;;
47401;SDS011;33155;48.370;-3.750;2022-09-29T08:04:31;0.10;;;0.10;;
47401;SDS011;33155;48.370;-3.750;2022-09-29T08:06:57;0.75;;;0.20;;
47401;SDS011;33155;48.370;-3.750;2022-09-29T08:09:23;2.22;;;0.10;;
47401;SDS011;33155;48.370;-3.750;2022-09-29T08:11:49;0.15;;;0.15;;
47401;SDS011;33155;48.370;-3.750;2022-09-29T08:14:14;1.00;;;0.28;;
47401;SDS011;33155;48.370;-3.750;2022-09-29T08:16:39;1.00;;;0.50;;
47401;SDS011;33155;48.370;-3.750;2022-09-29T08:19:05;0.95;;;0.30;;
47401;SDS011;33155;48.370;-3.750;2022-09-29T08:21:31;1.85;;;0.30;;
47401;SDS011;33155;48.370;-3.750;2022-09-29T08:24:01;0.25;;;0.20;;
47401;SDS011;33155;48.370;-3.750;2022-09-29T08:26:28;0.38;;;0.25;;
47401;SDS011;33155;48.370;-3.750;2022-09-29T08:28:56;1.17;;;0.40;;
47401;SDS011;33155;48.370;-3.750;2022-09-29T08:31:22;0.55;;;0.40;;
47401;SDS011;33155;48.370;-3.750;2022-09-29T08:33:48;2.30;;;0.40;;
47401;SDS011;33155;48.370;-3.750;2022-09-29T08:36:14;0.70;;;0.40;;
47401;SDS011;33155;48.370;-3.750;2022-09-29T08:38:40;0.30;;;0.28;;
47401;SDS011;33155;48.370;-3.750;2022-09-29T08:43:56;1.53;;;0.20;;
47401;SDS011;33155;48.370;-3.750;2022-09-29T08:46:47;7.00;;;1.65;;
47401;SDS011;33155;48.370;-3.750;2022-09-29T08:49:17;0.70;;;0.38;;
47401;SDS011;33155;48.370;-3.750;2022-09-29T08:51:50;0.70;;;0.40;;
47401;SDS011;33155;48.370;-3.750;2022-09-29T08:54:23;1.40;;;0.52;;
47401;SDS011;33155;48.370;-3.750;2022-09-29T08:56:52;0.47;;;0.40;;
47401;SDS011;33155;48.370;-3.750;2022-09-29T08:59:17;2.40;;;0.52;;
47401;SDS011;33155;48.370;-3.750;2022-09-29T09:01:52;0.65;;;0.43;;
47401;SDS011;33155;48.370;-3.750;2022-09-29T09:04:39;1.50;;;0.70;;
47401;SDS011;33155;48.370;-3.750;2022-09-29T09:07:16;2.53;;;0.55;;
47401;SDS011;33155;48.370;-3.750;2022-09-29T09:21:00;0.65;;;0.30;;
47401;SDS011;33155;48.370;-3.750;2022-09-29T09:26:15;2.28;;;0.68;;
47401;SDS011;33155;48.370;-3.750;2022-09-29T09:28:44;0.68;;;0.50;;
47401;SDS011;33155;48.370;-3.750;2022-09-29T09:31:19;0.95;;;0.57;;
47401;SDS011;33155;48.370;-3.750;2022-09-29T09:36:26;1.02;;;0.40;;
47401;SDS011;33155;48.370;-3.750;2022-09-29T09:39:13;1.60;;;0.40;;
47401;SDS011;33155;48.370;-3.750;2022-09-29T09:41:44;6.43;;;0.95;;
47401;SDS011;33155;48.370;-3.750;2022-09-29T09:47:24;2.90;;;0.82;;
47401;SDS011;33155;48.370;-3.750;2022-09-29T09:49:47;1.75;;;0.68;;
47401;SDS011;33155;48.370;-3.750;2022-09-29T09:54:54;2.08;;;0.77;;
47401;SDS011;33155;48.370;-3.750;2022-09-29T10:00:00;2.75;;;0.63;;
47401;SDS011;33155;48.370;-3.750;2022-09-29T10:02:37;3.65;;;0.63;;
47401;SDS011;33155;48.370;-3.750;2022-09-29T10:05:11;7.22;;;0.93;;
47401;SDS011;33155;48.370;-3.750;2022-09-29T10:07:48;1.95;;;1.15;;
47401;SDS011;33155;48.370;-3.750;2022-09-29T10:10:16;3.53;;;1.05;;
47401;SDS011;33155;48.370;-3.750;2022-09-29T10:12:46;2.47;;;0.50;;
47401;SDS011;33155;48.370;-3.750;2022-09-29T10:15:18;2.28;;;0.90;;
47401;SDS011;33155;48.370;-3.750;2022-09-29T10:17:47;3.40;;;0.60;;
47401;SDS011;33155;48.370;-3.750;2022-09-29T10:20:33;1.13;;;0.60;;
47401;SDS011;33155;48.370;-3.750;2022-09-29T10:25:57;1.92;;;0.68;;
47401;SDS011;33155;48.370;-3.750;2022-09-29T10:28:54;5.00;;;0.98;;
47401;SDS011;33155;48.370;-3.750;2022-09-29T10:31:29;2.10;;;0.90;;
47401;SDS011;33155;48.370;-3.750;2022-09-29T10:39:45;2.30;;;0.93;;
47401;SDS011;33155;48.370;-3.750;2022-09-29T10:45:18;2.17;;;0.50;;
47401;SDS011;33155;48.370;-3.750;2022-09-29T10:50:29;1.13;;;0.40;;
47401;SDS011;33155;48.370;-3.750;2022-09-29T10:52:56;3.15;;;0.32;;
47401;SDS011;33155;48.370;-3.750;2022-09-29T10:55:24;1.50;;;0.73;;
47401;SDS011;33155;48.370;-3.750;2022-09-29T10:57:51;1.25;;;0.40;;
47401;SDS011;33155;48.370;-3.750;2022-09-29T11:00:37;1.90;;;0.88;;
47401;SDS011;33155;48.370;-3.750;2022-09-29T11:05:30;4.55;;;0.60;;
47401;SDS011;33155;48.370;-3.750;2022-09-29T11:07:56;4.68;;;0.98;;
47401;SDS011;33155;48.370;-3.750;2022-09-29T11:10:31;3.40;;;1.15;;
47401;SDS011;33155;48.370;-3.750;2022-09-29T11:15:39;1.42;;;0.50;;
47401;SDS011;33155;48.370;-3.750;2022-09-29T11:18:26;1.75;;;0.50;;
47401;SDS011;33155;48.370;-3.750;2022-09-29T11:20:59;2.58;;;0.60;;
47401;SDS011;33155;48.370;-3.750;2022-09-29T11:23:30;4.78;;;1.08;;
47401;SDS011;33155;48.370;-3.750;2022-09-29T11:26:17;3.05;;;0.70;;
47401;SDS011;33155;48.370;-3.750;2022-09-29T11:40:57;1.50;;;0.80;;
47401;SDS011;33155;48.370;-3.750;2022-09-29T11:49:17;1.30;;;0.77;;
47401;SDS011;33155;48.370;-3.750;2022-09-29T12:00:10;2.13;;;0.80;;
47401;SDS011;33155;48.370;-3.750;2022-09-29T12:08:49;3.05;;;0.93;;
47401;SDS011;33155;48.370;-3.750;2022-09-29T12:17:13;2.20;;;0.68;;
47401;SDS011;33155;48.370;-3.750;2022-09-29T12:19:43;1.67;;;0.52;;
47401;SDS011;33155;48.370;-3.750;2022-09-29T12:22:10;2.08;;;0.70;;
47401;SDS011;33155;48.370;-3.750;2022-09-29T12:24:42;1.42;;;0.75;;
47401;SDS011;33155;48.370;-3.750;2022-09-29T12:29:52;2.00;;;0.70;;
47401;SDS011;33155;48.370;-3.750;2022-09-29T12:32:22;1.27;;;0.47;;
47401;SDS011;33155;48.370;-3.750;2022-09-29T12:37:48;1.95;;;0.65;;
47401;SDS011;33155;48.370;-3.750;2022-09-29T12:40:29;3.10;;;0.80;;
47401;SDS011;33155;48.370;-3.750;2022-09-29T12:51:23;4.93;;;0.93;;
47401;SDS011;33155;48.370;-3.750;2022-09-29T12:56:34;0.77;;;0.40;;
47401;SDS011;33155;48.370;-3.750;2022-09-29T12:59:03;1.00;;;0.40;;
47401;SDS011;33155;48.370;-3.750;2022-09-29T13:01:33;0.82;;;0.60;;
47401;SDS011;33155;48.370;-3.750;2022-09-29T13:09:57;3.75;;;0.93;;
47401;SDS011;33155;48.370;-3.750;2022-09-29T13:12:29;2.70;;;0.70;;
47401;SDS011;33155;48.370;-3.750;2022-09-29T13:15:02;1.58;;;0.50;;
47401;SDS011;33155;48.370;-3.750;2022-09-29T13:21:08;2.17;;;0.52;;
47401;SDS011;33155;48.370;-3.750;2022-09-29T13:28:45;1.02;;;1.00;;
47401;SDS011;33155;48.370;-3.750;2022-09-29T13:31:13;0.63;;;0.40;;
47401;SDS011;33155;48.370;-3.750;2022-09-29T13:33:45;0.82;;;0.60;;
47401;SDS011;33155;48.370;-3.750;2022-09-29T13:36:20;0.95;;;0.75;;
47401;SDS011;33155;48.370;-3.750;2022-09-29T13:38:53;0.63;;;0.63;;
47401;SDS011;33155;48.370;-3.750;2022-09-29T13:49:10;1.17;;;0.70;;
47401;SDS011;33155;48.370;-3.750;2022-09-29T13:54:35;0.88;;;0.50;;
47401;SDS011;33155;48.370;-3.750;2022-09-29T13:59:31;0.55;;;0.50;;
47401;SDS011;33155;48.370;-3.750;2022-09-29T14:01:57;1.05;;;0.50;;
47401;SDS011;33155;48.370;-3.750;2022-09-29T14:04:33;1.75;;;0.40;;
47401;SDS011;33155;48.370;-3.750;2022-09-29T14:07:33;0.50;;;0.30;;
47401;SDS011;33155;48.370;-3.750;2022-09-29T14:10:06;1.15;;;0.50;;
47401;SDS011;33155;48.370;-3.750;2022-09-29T14:12:39;0.70;;;0.43;;
47401;SDS011;33155;48.370;-3.750;2022-09-29T14:15:05;1.10;;;0.65;;
47401;SDS011;33155;48.370;-3.750;2022-09-29T14:17:33;0.57;;;0.38;;
47401;SDS011;33155;48.370;-3.750;2022-09-29T14:33:03;0.82;;;0.57;;
47401;SDS011;33155;48.370;-3.750;2022-09-29T14:35:35;1.10;;;0.40;;
47401;SDS011;33155;48.370;-3.750;2022-09-29T14:38:24;0.60;;;0.40;;
47401;SDS011;33155;48.370;-3.750;2022-09-29T14:44:00;0.47;;;0.30;;
47401;SDS011;33155;48.370;-3.750;2022-09-29T14:55:22;1.40;;;0.60;;
47401;SDS011;33155;48.370;-3.750;2022-09-29T15:03:14;0.50;;;0.40;;
47401;SDS011;33155;48.370;-3.750;2022-09-29T15:05:46;0.60;;;0.57;;
47401;SDS011;33155;48.370;-3.750;2022-09-29T15:08:33;0.65;;;0.50;;
47401;SDS011;33155;48.370;-3.750;2022-09-29T15:10:59;0.93;;;0.50;;
47401;SDS011;33155;48.370;-3.750;2022-09-29T15:13:28;2.10;;;0.63;;
47401;SDS011;33155;48.370;-3.750;2022-09-29T15:15:59;1.67;;;0.52;;
47401;SDS011;33155;48.370;-3.750;2022-09-29T15:21:11;1.08;;;0.70;;
47401;SDS011;33155;48.370;-3.750;2022-09-29T15:24:05;0.60;;;0.60;;
47401;SDS011;33155;48.370;-3.750;2022-09-29T15:26:38;0.52;;;0.47;;
47401;SDS011;33155;48.370;-3.750;2022-09-29T15:29:05;0.30;;;0.30;;
47401;SDS011;33155;48.370;-3.750;2022-09-29T15:31:31;1.63;;;0.60;;
47401;SDS011;33155;48.370;-3.750;2022-09-29T15:34:00;1.67;;;0.50;;
47401;SDS011;33155;48.370;-3.750;2022-09-29T15:36:30;2.90;;;0.82;;
47401;SDS011;33155;48.370;-3.750;2022-09-29T15:39:00;0.80;;;0.50;;
47401;SDS011;33155;48.370;-3.750;2022-09-29T15:41:30;0.50;;;0.50;;
47401;SDS011;33155;48.370;-3.750;2022-09-29T15:43:58;0.45;;;0.45;;
47401;SDS011;33155;48.370;-3.750;2022-09-29T15:46:47;0.60;;;0.40;;
47401;SDS011;33155;48.370;-3.750;2022-09-29T15:51:43;0.30;;;0.30;;
47401;SDS011;33155;48.370;-3.750;2022-09-29T15:54:19;0.40;;;0.30;;
47401;SDS011;33155;48.370;-3.750;2022-09-29T15:56:45;0.32;;;0.30;;
47401;SDS011;33155;48.370;-3.750;2022-09-29T16:02:50;0.60;;;0.40;;
47401;SDS011;33155;48.370;-3.750;2022-09-29T16:05:03;0.40;;;0.40;;
47401;SDS011;33155;48.370;-3.750;2022-09-29T16:07:32;1.55;;;0.52;;
47401;SDS011;33155;48.370;-3.750;2022-09-29T16:10:21;0.20;;;0.20;;
47401;SDS011;33155;48.370;-3.750;2022-09-29T16:12:52;0.30;;;0.30;;
47401;SDS011;33155;48.370;-3.750;2022-09-29T16:15:41;0.45;;;0.32;;
47401;SDS011;33155;48.370;-3.750;2022-09-29T16:18:14;0.20;;;0.20;;
47401;SDS011;33155;48.370;-3.750;2022-09-29T16:20:43;0.20;;;0.20;;
47401;SDS011;33155;48.370;-3.750;2022-09-29T16:23:25;0.22;;;0.20;;
47401;SDS011;33155;48.370;-3.750;2022-09-29T16:28:31;0.52;;;0.30;;
47401;SDS011;33155;48.370;-3.750;2022-09-29T16:31:00;0.20;;;0.20;;
47401;SDS011;33155;48.370;-3.750;2022-09-29T16:33:27;0.98;;;0.32;;
47401;SDS011;33155;48.370;-3.750;2022-09-29T16:40:50;0.20;;;0.20;;
47401;SDS011;33155;48.370;-3.750;2022-09-29T16:43:29;0.20;;;0.20;;
47401;SDS011;33155;48.370;-3.750;2022-09-29T16:45:55;0.60;;;0.30;;
47401;SDS011;33155;48.370;-3.750;2022-09-29T16:48:25;0.38;;;0.20;;
47401;SDS011;33155;48.370;-3.750;2022-09-29T16:50:59;0.20;;;0.20;;
47401;SDS011;33155;48.370;-3.750;2022-09-29T16:53:32;0.30;;;0.20;;
47401;SDS011;33155;48.370;-3.750;2022-09-29T16:56:02;0.20;;;0.20;;
47401;SDS011;33155;48.370;-3.750;2022-09-29T16:58:32;0.20;;;0.20;;
47401;SDS011;33155;48.370;-3.750;2022-09-29T17:00:57;0.43;;;0.40;;
47401;SDS011;33155;48.370;-3.750;2022-09-29T17:03:23;0.20;;;0.20;;
47401;SDS011;33155;48.370;-3.750;2022-09-29T17:05:48;0.10;;;0.10;;
47401;SDS011;33155;48.370;-3.750;2022-09-29T17:08:22;0.20;;;0.20;;
47401;SDS011;33155;48.370;-3.750;2022-09-29T17:10:49;0.40;;;0.30;;
47401;SDS011;33155;48.370;-3.750;2022-09-29T17:13:16;0.28;;;0.22;;
47401;SDS011;33155;48.370;-3.750;2022-09-29T17:15:42;0.15;;;0.15;;
47401;SDS011;33155;48.370;-3.750;2022-09-29T17:18:13;0.25;;;0.20;;
47401;SDS011;33155;48.370;-3.750;2022-09-29T17:20:40;0.35;;;0.20;;
47401;SDS011;33155;48.370;-3.750;2022-09-29T17:23:05;0.20;;;0.20;;
47401;SDS011;33155;48.370;-3.750;2022-09-29T17:25:32;0.82;;;0.50;;
47401;SDS011;33155;48.370;-3.750;2022-09-29T17:27:59;1.20;;;0.43;;
47401;SDS011;33155;48.370;-3.750;2022-09-29T17:30:39;0.40;;;0.30;;
47401;SDS011;33155;48.370;-3.750;2022-09-29T17:33:09;0.30;;;0.30;;
47401;SDS011;33155;48.370;-3.750;2022-09-29T17:35:37;0.43;;;0.40;;
47401;SDS011;33155;48.370;-3.750;2022-09-29T17:38:04;0.30;;;0.30;;
47401;SDS011;33155;48.370;-3.750;2022-09-29T17:43:04;0.20;;;0.20;;
47401;SDS011;33155;48.370;-3.750;2022-09-29T17:45:29;0.40;;;0.30;;
47401;SDS011;33155;48.370;-3.750;2022-09-29T17:47:57;0.20;;;0.20;;
47401;SDS011;33155;48.370;-3.750;2022-09-29T17:50:27;0.25;;;0.20;;
47401;SDS011;33155;48.370;-3.750;2022-09-29T17:52:55;1.23;;;0.40;;
47401;SDS011;33155;48.370;-3.750;2022-09-29T17:55:22;0.32;;;0.20;;
47401;SDS011;33155;48.370;-3.750;2022-09-29T17:57:49;0.30;;;0.30;;
47401;SDS011;33155;48.370;-3.750;2022-09-29T18:00:20;0.22;;;0.22;;
47401;SDS011;33155;48.370;-3.750;2022-09-29T18:02:50;0.25;;;0.22;;
47401;SDS011;33155;48.370;-3.750;2022-09-29T18:05:17;0.30;;;0.30;;
47401;SDS011;33155;48.370;-3.750;2022-09-29T18:07:49;1.60;;;0.30;;
47401;SDS011;33155;48.370;-3.750;2022-09-29T18:12:45;0.43;;;0.40;;
47401;SDS011;33155;48.370;-3.750;2022-09-29T18:15:10;0.43;;;0.30;;
47401;SDS011;33155;48.370;-3.750;2022-09-29T18:17:36;0.75;;;0.55;;
47401;SDS011;33155;48.370;-3.750;2022-09-29T18:20:15;0.43;;;0.40;;
47401;SDS011;33155;48.370;-3.750;2022-09-29T18:22:45;0.93;;;0.43;;
47401;SDS011;33155;48.370;-3.750;2022-09-29T18:25:11;0.85;;;0.28;;
47401;SDS011;33155;48.370;-3.750;2022-09-29T18:27:38;0.38;;;0.38;;
47401;SDS011;33155;48.370;-3.750;2022-09-29T18:30:17;0.63;;;0.30;;
47401;SDS011;33155;48.370;-3.750;2022-09-29T18:32:53;0.70;;;0.43;;
47401;SDS011;33155;48.370;-3.750;2022-09-29T18:35:23;0.80;;;0.50;;
47401;SDS011;33155;48.370;-3.750;2022-09-29T18:37:50;0.38;;;0.38;;
47401;SDS011;33155;48.370;-3.750;2022-09-29T18:40:16;0.80;;;0.57;;
47401;SDS011;33155;48.370;-3.750;2022-09-29T18:42:43;0.52;;;0.38;;
47401;SDS011;33155;48.370;-3.750;2022-09-29T18:45:10;0.45;;;0.45;;
47401;SDS011;33155;48.370;-3.750;2022-09-29T18:47:39;0.43;;;0.32;;
47401;SDS011;33155;48.370;-3.750;2022-09-29T18:50:10;0.95;;;0.50;;
47401;SDS011;33155;48.370;-3.750;2022-09-29T18:52:41;0.40;;;0.38;;
47401;SDS011;33155;48.370;-3.750;2022-09-29T18:55:06;0.52;;;0.47;;
47401;SDS011;33155;48.370;-3.750;2022-09-29T18:57:32;1.05;;;0.60;;
47401;SDS011;33155;48.370;-3.750;2022-09-29T18:59:58;0.35;;;0.30;;
47401;SDS011;33155;48.370;-3.750;2022-09-29T19:02:23;1.05;;;0.70;;
47401;SDS011;33155;48.370;-3.750;2022-09-29T19:04:50;0.47;;;0.47;;
47401;SDS011;33155;48.370;-3.750;2022-09-29T19:07:17;0.45;;;0.45;;
47401;SDS011;33155;48.370;-3.750;2022-09-29T19:09:43;0.70;;;0.50;;
47401;SDS011;33155;48.370;-3.750;2022-09-29T19:12:09;1.05;;;0.60;;
47401;SDS011;33155;48.370;-3.750;2022-09-29T19:14:35;1.73;;;0.68;;
47401;SDS011;33155;48.370;-3.750;2022-09-29T19:17:01;0.63;;;0.60;;
47401;SDS011;33155;48.370;-3.750;2022-09-29T19:19:27;0.60;;;0.45;;
47401;SDS011;33155;48.370;-3.750;2022-09-29T19:21:52;0.55;;;0.43;;
47401;SDS011;33155;48.370;-3.750;2022-09-29T19:24:18;0.77;;;0.68;;
47401;SDS011;33155;48.370;-3.750;2022-09-29T19:26:46;1.10;;;1.00;;
47401;SDS011;33155;48.370;-3.750;2022-09-29T19:29:11;0.95;;;0.68;;
47401;SDS011;33155;48.370;-3.750;2022-09-29T19:31:37;1.23;;;0.80;;
47401;SDS011;33155;48.370;-3.750;2022-09-29T19:34:02;1.00;;;0.80;;
47401;SDS011;33155;48.370;-3.750;2022-09-29T19:36:28;0.93;;;0.70;;
47401;SDS011;33155;48.370;-3.750;2022-09-29T19:38:53;0.90;;;0.60;;
47401;SDS011;33155;48.370;-3.750;2022-09-29T19:41:21;1.27;;;0.88;;
47401;SDS011;33155;48.370;-3.750;2022-09-29T19:43:47;0.60;;;0.60;;
47401;SDS011;33155;48.370;-3.750;2022-09-29T19:46:14;1.05;;;0.70;;
47401;SDS011;33155;48.370;-3.750;2022-09-29T19:48:40;0.55;;;0.55;;
47401;SDS011;33155;48.370;-3.750;2022-09-29T19:51:07;0.70;;;0.68;;
47401;SDS011;33155;48.370;-3.750;2022-09-29T19:53:52;0.95;;;0.63;;
47401;SDS011;33155;48.370;-3.750;2022-09-29T19:56:35;2.13;;;0.65;;
47401;SDS011;33155;48.370;-3.750;2022-09-29T19:59:02;0.85;;;0.70;;
